Time;durP1;ratioP1;P1;durP2;ratioP2;P2;SDS_P1;SDS_P2;PMS_P1;PMS_P2;Temp;Humidity;BMP_temperature;BMP_pressure;BME280_temperature;BME280_humidity;BME280_pressure;Samples;Min_cycle;Max_cycle;Signal;HPM_P1;HPM_P2
2022/09/09 00:00:15;;;;;;;3.20;0.73;;;20.60;54.30;;;;;;4998917;28;19952;-56
2022/09/09 00:02:47;;;;;;;3.00;0.73;;;20.60;54.40;;;;;;5000764;28;20065;-55
2022/09/09 00:05:26;;;;;;;2.67;0.77;;;20.60;54.50;;;;;;5001079;28;20493;-55
2022/09/09 00:07:56;;;;;;;1.73;0.70;;;20.50;54.60;;;;;;5001007;28;20062;-54
2022/09/09 00:10:30;;;;;;;3.67;0.80;;;20.50;54.60;;;;;;4995446;28;20049;-58
2022/09/09 00:13:02;;;;;;;1.08;0.40;;;20.50;54.80;;;;;;4999226;28;20046;-55
2022/09/09 00:15:35;;;;;;;2.63;0.73;;;20.50;54.80;;;;;;5002385;28;20485;-54
2022/09/09 00:18:10;;;;;;;6.28;0.60;;;20.50;54.90;;;;;;5002451;28;20057;-58
2022/09/09 00:20:43;;;;;;;2.83;0.80;;;20.50;54.90;;;;;;4998324;28;20046;-55
2022/09/09 00:23:15;;;;;;;4.60;0.90;;;20.40;55.10;;;;;;5001135;28;20069;-54
2022/09/09 00:25:53;;;;;;;3.80;0.90;;;20.40;55.00;;;;;;4998942;28;20081;-54
2022/09/09 00:28:23;;;;;;;2.63;0.80;;;20.40;55.10;;;;;;5002718;28;20228;-55
2022/09/09 00:30:50;;;;;;;4.60;0.70;;;20.40;55.00;;;;;;4996175;28;20049;-55
2022/09/09 00:33:22;;;;;;;2.55;0.40;;;20.40;55.00;;;;;;5001486;28;20053;-53
2022/09/09 00:35:51;;;;;;;2.78;0.70;;;20.40;55.10;;;;;;4998630;28;20062;-58
2022/09/09 00:38:24;;;;;;;2.22;0.60;;;20.40;55.10;;;;;;5002309;28;20061;-52
2022/09/09 00:40:59;;;;;;;2.50;0.68;;;20.40;55.10;;;;;;4994933;28;20050;-54
2022/09/09 00:43:30;;;;;;;2.25;0.80;;;20.30;55.00;;;;;;5001086;28;20732;-56
2022/09/09 00:46:23;;;;;;;1.38;0.60;;;20.30;55.10;;;;;;5000271;28;20053;-55
2022/09/09 00:48:58;;;;;;;1.88;0.52;;;20.30;55.10;;;;;;5001943;28;20050;-55
2022/09/09 00:51:37;;;;;;;3.50;0.50;;;20.30;55.10;;;;;;4998660;28;20065;-56
2022/09/09 00:54:32;;;;;;;2.90;1.27;;;20.30;55.10;;;;;;4999646;28;20046;-58
2022/09/09 00:57:13;;;;;;;4.68;0.80;;;20.30;55.20;;;;;;5000760;28;20050;-53
2022/09/09 00:59:47;;;;;;;5.50;0.57;;;20.30;55.10;;;;;;4999079;28;20052;-56
2022/09/09 01:02:22;;;;;;;;;;;20.30;55.20;;;;;;5002482;28;20053;-58
2022/09/09 01:04:49;;;;;;;5.53;0.80;;;20.30;55.00;;;;;;5000109;28;19921;-58
2022/09/09 01:07:18;;;;;;;2.13;0.75;;;20.30;54.80;;;;;;5001882;28;21031;-57
2022/09/09 01:09:57;;;;;;;2.42;0.60;;;20.20;54.90;;;;;;4999028;28;20054;-57
2022/09/09 01:12:35;;;;;;;2.47;0.47;;;20.20;55.10;;;;;;4997052;28;20340;-58
2022/09/09 01:15:11;;;;;;;2.92;0.90;;;20.10;55.10;;;;;;5002431;28;20057;-57
2022/09/09 01:17:51;;;;;;;4.68;0.60;;;20.10;55.20;;;;;;5005451;28;20080;-58
2022/09/09 01:20:23;;;;;;;5.72;0.68;;;20.10;55.40;;;;;;4998218;28;20068;-57
2022/09/09 01:23:05;;;;;;;1.88;0.70;;;20.10;55.30;;;;;;5002870;28;20490;-58
2022/09/09 01:26:12;;;;;;;3.72;0.75;;;20.10;55.40;;;;;;5002262;28;20060;-57
2022/09/09 01:28:41;;;;;;;3.65;0.70;;;20.00;55.50;;;;;;5004308;28;20054;-57
2022/09/09 01:31:12;;;;;;;1.95;0.57;;;20.00;55.30;;;;;;4994771;28;20057;-58
2022/09/09 01:33:39;;;;;;;3.15;0.73;;;20.00;55.40;;;;;;4998035;28;20058;-56
2022/09/09 01:36:09;;;;;;;2.80;0.80;;;19.90;55.30;;;;;;5002098;28;20050;-58
2022/09/09 01:38:37;;;;;;;2.88;0.73;;;19.90;55.50;;;;;;4995834;28;20053;-58
2022/09/09 01:41:06;;;;;;;3.40;0.95;;;19.90;55.50;;;;;;4997847;28;20050;-58
2022/09/09 01:43:33;;;;;;;3.78;0.75;;;19.90;55.60;;;;;;5007501;28;20533;-57
2022/09/09 01:46:02;;;;;;;2.58;0.80;;;19.80;55.60;;;;;;5003726;28;20054;-58
2022/09/09 01:48:31;;;;;;;2.28;0.60;;;19.90;55.70;;;;;;5006808;28;20057;-58
2022/09/09 01:50:58;;;;;;;4.05;0.98;;;19.80;55.70;;;;;;4999832;28;20593;-58
2022/09/09 01:53:25;;;;;;;1.35;0.57;;;19.80;55.70;;;;;;5004371;28;20058;-58
2022/09/09 01:56:04;;;;;;;2.72;0.50;;;19.80;55.70;;;;;;5007054;28;20429;-58
2022/09/09 01:58:46;;;;;;;3.40;0.63;;;19.80;55.80;;;;;;5004258;28;20049;-58
2022/09/09 02:01:22;;;;;;;6.72;1.90;;;19.70;55.70;;;;;;5001129;28;20058;-58
2022/09/09 02:03:54;;;;;;;1.42;0.52;;;19.70;55.70;;;;;;5006556;28;20061;-58
2022/09/09 02:06:31;;;;;;;4.25;0.85;;;19.80;55.80;;;;;;5006816;28;20050;-58
2022/09/09 02:08:59;;;;;;;1.63;0.57;;;19.80;55.90;;;;;;5002851;28;20053;-58
2022/09/09 02:11:29;;;;;;;2.22;0.55;;;19.70;55.80;;;;;;4999560;28;20065;-58
2022/09/09 02:14:02;;;;;;;1.67;0.47;;;19.70;55.90;;;;;;5004980;28;20521;-58
2022/09/09 02:16:37;;;;;;;3.70;0.70;;;19.70;55.90;;;;;;5006076;28;20065;-58
2022/09/09 02:19:13;;;;;;;2.78;0.70;;;19.70;55.90;;;;;;5005830;28;20512;-58
2022/09/09 02:21:42;;;;;;;4.10;0.80;;;19.70;56.00;;;;;;5000129;28;20046;-58
2022/09/09 02:24:11;;;;;;;2.03;0.60;;;19.70;55.90;;;;;;5006589;28;20061;-57
2022/09/09 02:26:42;;;;;;;3.03;0.57;;;19.70;55.90;;;;;;5005276;28;20061;-58
2022/09/09 02:29:15;;;;;;;1.67;0.60;;;19.70;56.00;;;;;;5002804;28;20058;-58
2022/09/09 02:31:45;;;;;;;4.40;0.70;;;19.70;56.00;;;;;;4999785;28;20053;-58
2022/09/09 02:34:14;;;;;;;2.72;0.65;;;19.70;56.10;;;;;;5004398;28;20077;-58
2022/09/09 02:36:46;;;;;;;3.22;0.60;;;19.70;56.10;;;;;;5004931;28;20053;-58
2022/09/09 02:39:14;;;;;;;2.67;0.63;;;19.60;56.10;;;;;;5004399;28;20052;-56
2022/09/09 02:41:42;;;;;;;3.17;0.85;;;19.70;56.10;;;;;;4999450;28;20058;-56
2022/09/09 02:44:13;;;;;;;1.42;0.70;;;19.60;56.60;;;;;;4999213;28;20053;-54
2022/09/09 02:47:08;;;;;;;3.92;0.80;;;19.60;56.10;;;;;;4999029;28;20054;-55
2022/09/09 02:49:44;;;;;;;2.83;0.90;;;19.70;56.30;;;;;;5003331;28;20422;-57
2022/09/09 02:52:16;;;;;;;3.15;0.77;;;19.70;56.10;;;;;;5002566;28;20064;-58
2022/09/09 02:54:44;;;;;;;3.92;0.98;;;19.60;56.00;;;;;;5004895;28;20061;-58
2022/09/09 02:57:13;;;;;;;4.07;0.95;;;19.60;56.10;;;;;;5002466;28;20069;-58
2022/09/09 02:59:44;;;;;;;2.10;0.70;;;19.70;56.10;;;;;;5002904;28;20417;-56
2022/09/09 03:02:12;;;;;;;1.42;0.60;;;19.60;56.10;;;;;;5000441;28;20061;-57
2022/09/09 03:04:40;;;;;;;1.65;0.50;;;19.60;56.10;;;;;;5001323;28;20054;-58
2022/09/09 03:07:07;;;;;;;7.85;0.80;;;19.60;56.10;;;;;;5004907;28;20050;-58
2022/09/09 03:09:34;;;;;;;5.93;1.05;;;19.60;56.30;;;;;;5006034;28;20054;-57
2022/09/09 03:12:03;;;;;;;2.78;0.75;;;19.60;56.30;;;;;;5004716;28;20405;-58
2022/09/09 03:14:31;;;;;;;5.22;1.10;;;19.60;56.40;;;;;;5001663;28;20049;-57
2022/09/09 03:20:21;;;;;;;1.50;0.50;;;19.50;56.60;;;;;;5000115;28;20049;-58
2022/09/09 03:22:49;;;;;;;5.38;1.17;;;19.60;56.60;;;;;;5003365;28;20426;-57
2022/09/09 03:25:17;;;;;;;2.25;0.82;;;19.60;56.60;;;;;;5005164;28;20062;-58
2022/09/09 03:27:45;;;;;;;3.72;0.70;;;19.50;56.60;;;;;;4998960;28;20061;-58
2022/09/09 03:30:12;;;;;;;2.38;0.65;;;19.60;56.70;;;;;;5000671;28;20413;-58
2022/09/09 03:32:40;;;;;;;3.45;0.98;;;19.50;56.60;;;;;;4989006;28;20057;-58
2022/09/09 03:35:08;;;;;;;3.95;0.80;;;19.50;56.70;;;;;;5000817;28;20493;-58
2022/09/09 03:37:38;;;;;;;4.85;2.13;;;19.50;56.80;;;;;;5004441;28;20834;-58
2022/09/09 03:40:06;;;;;;;6.55;2.38;;;19.50;56.80;;;;;;5000144;28;20054;-58
2022/09/09 03:42:36;;;;;;;2.78;1.23;;;19.50;56.80;;;;;;5002858;28;20498;-58
2022/09/09 03:45:04;;;;;;;6.80;1.23;;;19.50;56.80;;;;;;4997889;28;20061;-58
2022/09/09 03:47:32;;;;;;;3.88;1.10;;;19.60;56.90;;;;;;5004087;28;20054;-57
2022/09/09 03:49:59;;;;;;;4.57;0.95;;;19.50;56.90;;;;;;5001500;28;20461;-58
2022/09/09 03:52:26;;;;;;;3.45;0.80;;;19.60;56.90;;;;;;5001904;28;20061;-58
2022/09/09 03:54:56;;;;;;;2.60;0.80;;;19.50;56.90;;;;;;5005381;28;20080;-58
2022/09/09 03:57:23;;;;;;;2.13;0.52;;;19.50;57.00;;;;;;5001886;28;20069;-58
2022/09/09 03:59:52;;;;;;;1.63;0.77;;;19.50;57.00;;;;;;5003644;28;20052;-58
2022/09/09 04:02:19;;;;;;;3.92;0.70;;;19.50;56.90;;;;;;5002498;28;20065;-57
2022/09/09 04:04:46;;;;;;;3.33;0.75;;;19.50;57.00;;;;;;5002123;28;20053;-56
2022/09/09 04:07:13;;;;;;;3.30;0.50;;;19.50;57.00;;;;;;5004396;28;20049;-58
2022/09/09 04:09:41;;;;;;;2.35;0.63;;;19.50;57.00;;;;;;5002508;28;20490;-58
2022/09/09 04:12:13;;;;;;;3.80;0.75;;;19.50;57.00;;;;;;5000357;28;20501;-58
2022/09/09 04:14:40;;;;;;;1.40;0.60;;;19.50;57.00;;;;;;5004112;28;20065;-58
2022/09/09 04:17:07;;;;;;;4.10;0.70;;;19.50;57.10;;;;;;4995658;28;20057;-58
2022/09/09 04:19:35;;;;;;;5.13;1.02;;;19.50;57.10;;;;;;5000823;28;20061;-58
2022/09/09 04:22:02;;;;;;;2.88;0.90;;;19.50;57.10;;;;;;4998701;28;20053;-58
2022/09/09 04:24:29;;;;;;;8.25;3.38;;;19.50;57.10;;;;;;5003653;28;20050;-58
2022/09/09 04:26:57;;;;;;;5.78;2.47;;;19.50;57.10;;;;;;4997846;28;20056;-58
2022/09/09 04:29:25;;;;;;;3.60;1.27;;;19.50;57.10;;;;;;5000013;28;20521;-58
2022/09/09 04:31:53;;;;;;;3.35;1.05;;;19.50;57.20;;;;;;4993205;28;20561;-58
2022/09/09 04:34:20;;;;;;;3.55;1.00;;;19.50;57.20;;;;;;5002063;28;20066;-58
2022/09/09 04:36:47;;;;;;;4.57;0.80;;;19.50;57.20;;;;;;4999243;28;20075;-58
2022/09/09 04:39:14;;;;;;;2.33;0.90;;;19.50;57.30;;;;;;5004128;28;20057;-58
2022/09/09 04:41:41;;;;;;;4.70;0.90;;;19.50;57.30;;;;;;4997240;28;20056;-58
2022/09/09 04:44:09;;;;;;;3.05;0.55;;;19.50;57.30;;;;;;5000134;28;20054;-57
2022/09/09 04:46:38;;;;;;;2.88;0.77;;;19.50;57.40;;;;;;5001541;28;20070;-58
2022/09/09 04:49:05;;;;;;;2.75;1.00;;;19.60;57.50;;;;;;5003093;28;20057;-58
2022/09/09 04:51:33;;;;;;;4.43;1.23;;;19.60;57.50;;;;;;4998955;28;21531;-58
2022/09/09 04:54:00;;;;;;;3.22;1.08;;;19.50;57.40;;;;;;5000439;28;20064;-58
2022/09/09 04:56:28;;;;;;;4.28;0.73;;;19.60;57.50;;;;;;5003476;28;20057;-58
2022/09/09 04:58:55;;;;;;;4.07;0.90;;;19.60;57.50;;;;;;5003000;28;20413;-59
2022/09/09 05:01:24;;;;;;;2.10;0.70;;;19.50;57.40;;;;;;4999547;28;20525;-58
2022/09/09 05:03:53;;;;;;;2.92;0.75;;;19.60;57.50;;;;;;5004349;28;20057;-59
2022/09/09 05:06:22;;;;;;;2.92;0.77;;;19.60;57.50;;;;;;5002119;28;20068;-58
2022/09/09 05:08:49;;;;;;;7.72;0.98;;;19.60;57.60;;;;;;4999081;28;20164;-59
2022/09/09 05:11:19;;;;;;;5.68;0.90;;;19.60;57.50;;;;;;4994113;28;20057;-59
2022/09/09 05:13:47;;;;;;;3.70;0.73;;;19.60;57.50;;;;;;5003215;28;20050;-59
2022/09/09 05:19:38;;;;;;;2.45;0.65;;;19.60;57.70;;;;;;5009270;28;20029;-58
2022/09/09 05:22:05;;;;;;;2.65;0.90;;;19.60;57.60;;;;;;5009407;28;20046;-58
2022/09/09 05:24:33;;;;;;;2.38;0.80;;;19.60;57.60;;;;;;5009898;28;20057;-58
2022/09/09 05:27:02;;;;;;;2.78;0.90;;;19.60;57.60;;;;;;5015718;28;20045;-59
2022/09/09 05:29:29;;;;;;;3.22;0.65;;;19.60;57.60;;;;;;5014273;28;20618;-58
2022/09/09 05:31:56;;;;;;;4.45;1.20;;;19.60;57.70;;;;;;5015504;28;20580;-59
2022/09/09 05:34:23;;;;;;;2.55;0.80;;;19.60;57.70;;;;;;5015784;28;20065;-59
2022/09/09 05:36:53;;;;;;;2.33;0.95;;;19.60;57.70;;;;;;5015749;28;20050;-58
2022/09/09 05:39:20;;;;;;;4.13;0.60;;;19.60;57.70;;;;;;5015908;28;20441;-58
2022/09/09 05:41:48;;;;;;;2.60;0.65;;;19.60;57.60;;;;;;5005044;28;20382;-59
2022/09/09 05:44:15;;;;;;;3.60;0.80;;;19.70;57.60;;;;;;5008730;28;20053;-59
2022/09/09 05:46:42;;;;;;;2.90;0.80;;;19.70;57.60;;;;;;5015426;28;20057;-59
2022/09/09 05:49:10;;;;;;;3.42;0.65;;;19.70;57.60;;;;;;5011346;28;20060;-58
2022/09/09 05:51:37;;;;;;;4.43;0.75;;;19.70;57.60;;;;;;5006781;28;20053;-59
2022/09/09 05:54:06;;;;;;;3.35;0.80;;;19.70;57.60;;;;;;5013893;28;20061;-58
2022/09/09 05:56:33;;;;;;;1.83;0.68;;;19.70;57.60;;;;;;5011386;28;20057;-58
2022/09/09 05:59:00;;;;;;;3.10;0.80;;;19.70;57.60;;;;;;5008127;28;20061;-59
2022/09/09 06:01:30;;;;;;;2.15;0.75;;;19.70;57.60;;;;;;4998801;28;20509;-59
2022/09/09 06:03:58;;;;;;;2.60;0.68;;;19.70;57.60;;;;;;5012540;28;20501;-58
2022/09/09 06:06:27;;;;;;;3.05;0.85;;;19.70;57.60;;;;;;5013246;28;20046;-58
2022/09/09 06:08:57;;;;;;;3.13;0.82;;;19.70;57.60;;;;;;5010682;28;20061;-58
2022/09/09 06:11:30;;;;;;;2.28;0.73;;;19.70;57.60;;;;;;5010207;28;20054;-58
2022/09/09 06:13:58;;;;;;;3.20;0.93;;;19.80;57.70;;;;;;5011951;28;20053;-59
2022/09/09 06:16:27;;;;;;;3.83;0.60;;;19.80;57.70;;;;;;5011637;28;20516;-58
2022/09/09 06:18:56;;;;;;;3.65;0.80;;;19.80;57.80;;;;;;5010660;28;20049;-59
2022/09/09 06:21:25;;;;;;;1.40;0.55;;;19.80;57.80;;;;;;5011330;28;20081;-58
2022/09/09 06:23:54;;;;;;;3.90;0.73;;;19.80;57.90;;;;;;5015844;28;20050;-58
2022/09/09 06:26:24;;;;;;;1.33;0.60;;;19.80;57.90;;;;;;5012611;28;20073;-58
2022/09/09 06:28:53;;;;;;;2.40;0.63;;;19.80;57.90;;;;;;4998574;28;20062;-61
2022/09/09 06:31:23;;;;;;;4.43;0.57;;;19.90;58.00;;;;;;4999738;28;20053;-58
2022/09/09 06:33:51;;;;;;;1.33;0.55;;;19.90;58.00;;;;;;5006231;28;20062;-59
2022/09/09 06:36:20;;;;;;;3.83;0.63;;;19.90;58.00;;;;;;5004563;28;20054;-58
2022/09/09 06:38:48;;;;;;;3.40;1.00;;;19.90;58.00;;;;;;5008418;28;20072;-58
2022/09/09 06:41:17;;;;;;;3.75;0.60;;;20.00;58.10;;;;;;5001509;28;20481;-59
2022/09/09 06:43:44;;;;;;;5.35;0.90;;;20.00;58.10;;;;;;5003479;28;20056;-58
2022/09/09 06:46:22;;;;;;;3.08;0.75;;;20.00;58.00;;;;;;5009086;28;20543;-59
2022/09/09 06:48:49;;;;;;;4.22;0.90;;;20.00;58.00;;;;;;5005713;28;20058;-58
2022/09/09 06:51:18;;;;;;;3.65;0.70;;;20.10;58.00;;;;;;5001579;28;20090;-59
2022/09/09 06:53:47;;;;;;;9.95;1.20;;;20.10;58.00;;;;;;5001356;28;20052;-59
2022/09/09 06:56:20;;;;;;;3.70;1.00;;;20.10;58.00;;;;;;5005906;28;20057;-58
2022/09/09 06:58:48;;;;;;;5.88;2.08;;;20.10;58.10;;;;;;5000931;28;20058;-59
2022/09/09 07:01:19;;;;;;;3.47;1.08;;;20.20;58.10;;;;;;4990875;28;20537;-59
2022/09/09 07:03:50;;;;;;;2.55;0.60;;;20.20;58.10;;;;;;5002614;28;20061;-58
2022/09/09 07:06:19;;;;;;;3.42;0.93;;;20.30;58.20;;;;;;5004823;28;20046;-58
2022/09/09 07:08:51;;;;;;;3.45;0.85;;;20.30;58.20;;;;;;5004025;28;20054;-59
2022/09/09 07:11:19;;;;;;;3.85;1.00;;;20.30;58.00;;;;;;5003927;28;20064;-62
2022/09/09 07:13:47;;;;;;;4.10;0.85;;;20.40;58.10;;;;;;5004198;28;20049;-59
2022/09/09 07:16:16;;;;;;;3.63;1.00;;;20.40;58.10;;;;;;5004920;28;20054;-58
2022/09/09 07:18:44;;;;;;;6.95;1.27;;;20.50;57.70;;;;;;5002492;28;22038;-59
2022/09/09 07:21:14;;;;;;;4.40;0.73;;;20.50;57.10;;;;;;5003667;28;20433;-58
2022/09/09 07:23:42;;;;;;;6.35;1.33;;;20.50;56.80;;;;;;5002272;28;20054;-59
2022/09/09 07:26:13;;;;;;;8.63;1.20;;;20.50;56.70;;;;;;5005071;28;20537;-57
2022/09/09 07:28:41;;;;;;;6.38;1.45;;;20.60;56.50;;;;;;5001809;28;20058;-57
2022/09/09 07:31:16;;;;;;;5.25;0.95;;;20.60;56.20;;;;;;4998004;28;20073;-58
2022/09/09 07:33:49;;;;;;;4.70;1.13;;;20.60;55.80;;;;;;5003775;28;20058;-57
2022/09/09 07:36:26;;;;;;;5.57;1.23;;;20.70;55.70;;;;;;5005167;28;20057;-59
2022/09/09 07:38:55;;;;;;;4.20;1.13;;;20.70;55.40;;;;;;5000080;28;20050;-59
2022/09/09 07:41:26;;;;;;;3.75;1.00;;;20.70;55.00;;;;;;4999894;28;20505;-58
2022/09/09 07:43:55;;;;;;;8.60;1.35;;;20.70;54.70;;;;;;5005183;28;20057;-58
2022/09/09 07:46:25;;;;;;;5.22;1.30;;;20.80;54.80;;;;;;5003353;28;20053;-58
2022/09/09 07:48:55;;;;;;;5.40;0.90;;;20.80;54.60;;;;;;5005116;28;20054;-58
2022/09/09 07:51:25;;;;;;;7.53;1.20;;;20.80;54.30;;;;;;5002368;28;20069;-59
2022/09/09 07:53:54;;;;;;;7.90;1.30;;;20.90;54.20;;;;;;5003394;28;20565;-58
2022/09/09 07:56:23;;;;;;;6.53;0.90;;;20.90;53.90;;;;;;5000485;28;20053;-59
2022/09/09 07:58:52;;;;;;;5.30;1.30;;;21.00;54.10;;;;;;5001795;28;20049;-59
2022/09/09 08:01:25;;;;;;;5.00;1.10;;;21.00;53.60;;;;;;4999812;28;20057;-57
2022/09/09 08:04:00;;;;;;;5.57;1.05;;;21.10;53.30;;;;;;5005304;28;20493;-58
2022/09/09 08:06:29;;;;;;;5.97;1.40;;;21.10;53.20;;;;;;5002589;28;20053;-57
2022/09/09 08:08:56;;;;;;;7.65;1.77;;;21.20;53.20;;;;;;5001133;28;20061;-60
2022/09/09 08:11:26;;;;;;;6.82;1.98;;;21.20;52.80;;;;;;5000185;28;20049;-57
2022/09/09 08:13:54;;;;;;;6.82;1.23;;;21.30;52.20;;;;;;5002502;28;20077;-58
2022/09/09 08:16:26;;;;;;;12.82;1.67;;;21.30;52.20;;;;;;5002684;28;20069;-56
2022/09/09 08:18:55;;;;;;;6.55;1.20;;;21.40;52.00;;;;;;4998155;28;20053;-59
2022/09/09 08:21:27;;;;;;;7.43;1.67;;;21.40;52.10;;;;;;4995437;28;20061;-59
2022/09/09 08:23:56;;;;;;;5.57;1.30;;;21.50;51.90;;;;;;5002406;28;20504;-57
2022/09/09 08:26:25;;;;;;;5.15;1.10;;;21.50;51.80;;;;;;5002756;28;20050;-56
2022/09/09 08:28:54;;;;;;;11.02;1.25;;;21.50;51.30;;;;;;5003358;28;20061;-60
2022/09/09 08:31:24;;;;;;;4.32;1.50;;;21.50;51.30;;;;;;4999859;28;20061;-58
2022/09/09 08:33:51;;;;;;;6.30;1.13;;;21.60;51.00;;;;;;4999723;28;20050;-57
2022/09/09 08:36:21;;;;;;;7.97;1.40;;;21.60;50.80;;;;;;5003629;28;20054;-58
2022/09/09 08:38:51;;;;;;;4.78;0.90;;;21.70;50.80;;;;;;5001883;28;20049;-60
2022/09/09 08:41:49;;;;;;;6.55;1.30;;;21.70;50.60;;;;;;4999482;28;20596;-57
2022/09/09 08:44:29;;;;;;;3.38;0.95;;;21.70;50.20;;;;;;4998830;28;20069;-56
2022/09/09 08:47:03;;;;;;;8.90;1.98;;;21.70;50.00;;;;;;5001284;28;20069;-57
2022/09/09 08:49:46;;;;;;;5.63;1.60;;;21.80;49.70;;;;;;5001772;28;20053;-55
2022/09/09 08:52:19;;;;;;;8.90;1.45;;;21.80;49.30;;;;;;5002828;28;20375;-56
2022/09/09 08:54:48;;;;;;;4.57;1.27;;;21.80;49.60;;;;;;5003314;28;20054;-56
2022/09/09 08:57:20;;;;;;;7.65;1.33;;;21.80;49.70;;;;;;5002387;28;20058;-58
2022/09/09 08:59:48;;;;;;;5.28;1.38;;;21.80;49.40;;;;;;5001773;28;20434;-55
2022/09/09 09:02:22;;;;;;;5.18;1.48;;;21.90;49.10;;;;;;4999805;28;20054;-53
2022/09/09 09:05:06;;;;;;;2.97;1.00;;;21.80;48.80;;;;;;5001526;28;20489;-59
2022/09/09 09:07:46;;;;;;;4.47;0.90;;;21.90;48.90;;;;;;5000954;28;20057;-59
2022/09/09 09:10:30;;;;;;;5.10;0.80;;;21.90;49.00;;;;;;5002939;28;20428;-56
2022/09/09 09:13:01;;;;;;;6.60;1.20;;;22.00;48.40;;;;;;4995134;28;20052;-56
2022/09/09 09:15:34;;;;;;;5.03;1.33;;;21.90;48.40;;;;;;5001681;28;20497;-54
2022/09/09 09:18:01;;;;;;;6.40;1.05;;;22.00;48.00;;;;;;5002988;28;20409;-57
2022/09/09 09:20:37;;;;;;;5.22;1.00;;;22.00;48.10;;;;;;4999102;28;20050;-57
2022/09/09 09:23:06;;;;;;;4.15;0.95;;;22.00;47.50;;;;;;4998506;28;20045;-55
2022/09/09 09:25:38;;;;;;;4.05;0.90;;;22.00;47.60;;;;;;5002905;28;20058;-57
2022/09/09 09:28:17;;;;;;;3.92;0.90;;;22.00;47.40;;;;;;5002338;28;20080;-56
2022/09/09 09:30:52;;;;;;;5.80;0.95;;;22.10;47.30;;;;;;5000710;28;20061;-55
2022/09/09 09:33:23;;;;;;;10.20;1.70;;;22.10;47.40;;;;;;5003539;28;20081;-58
2022/09/09 09:35:51;;;;;;;12.07;1.25;;;22.10;47.30;;;;;;5002812;28;20061;-57
2022/09/09 09:38:22;;;;;;;7.15;1.35;;;22.20;47.10;;;;;;5002508;28;20058;-57
2022/09/09 09:40:54;;;;;;;4.75;0.98;;;22.20;47.00;;;;;;5000252;28;20054;-60
2022/09/09 09:43:25;;;;;;;4.68;1.40;;;22.20;46.90;;;;;;5000212;28;20054;-49
2022/09/09 09:45:52;;;;;;;4.47;0.80;;;22.30;47.10;;;;;;5002428;28;20057;-55
2022/09/09 09:48:19;;;;;;;5.47;1.00;;;22.30;46.90;;;;;;5002785;28;20050;-55
2022/09/09 09:50:52;;;;;;;3.92;0.80;;;22.40;46.50;;;;;;5000130;28;20058;-52
2022/09/09 09:53:25;;;;;;;3.50;0.95;;;22.40;46.40;;;;;;5002622;28;20054;-55
2022/09/09 09:55:59;;;;;;;6.28;1.30;;;22.50;46.10;;;;;;5002661;28;20508;-54
2022/09/09 09:58:29;;;;;;;5.82;1.08;;;22.50;46.10;;;;;;5002573;28;20058;-57
2022/09/09 10:00:57;;;;;;;4.03;0.90;;;22.60;45.90;;;;;;4999164;28;20068;-52
2022/09/09 10:03:27;;;;;;;4.93;0.95;;;22.50;46.00;;;;;;5003210;28;20053;-57
2022/09/09 10:05:56;;;;;;;2.45;0.80;;;22.50;45.40;;;;;;5006840;28;20489;-57
2022/09/09 10:08:23;;;;;;;5.53;0.93;;;22.60;45.50;;;;;;5006238;28;20054;-58
2022/09/09 10:11:05;;;;;;;3.92;0.77;;;22.60;45.50;;;;;;5003158;28;20504;-56
2022/09/09 10:13:42;;;;;;;3.25;0.85;;;22.60;45.50;;;;;;5004961;28;20057;-57
2022/09/09 10:16:26;;;;;;;4.13;1.20;;;22.60;45.50;;;;;;5005155;28;20053;-58
2022/09/09 10:19:00;;;;;;;5.53;1.30;;;22.60;45.50;;;;;;5006916;28;20050;-58
2022/09/09 10:21:43;;;;;;;3.38;0.68;;;22.60;46.00;;;;;;5002372;28;20060;-57
2022/09/09 10:24:29;;;;;;;7.53;1.10;;;22.70;45.90;;;;;;5005078;28;20054;-51
2022/09/09 10:27:04;;;;;;;8.20;1.10;;;22.70;45.70;;;;;;5003879;28;20058;-58
2022/09/09 10:29:48;;;;;;;4.45;1.05;;;22.70;45.60;;;;;;5005608;28;20065;-53
2022/09/09 10:32:46;;;;;;;4.15;1.00;;;22.70;45.30;;;;;;5003839;28;20062;-55
2022/09/09 10:35:36;;;;;;;3.15;0.93;;;22.70;45.70;;;;;;5006176;28;20061;-59
2022/09/09 10:38:19;;;;;;;3.50;1.00;;;22.70;45.50;;;;;;5006067;28;20057;-58
2022/09/09 10:41:11;;;;;;;3.13;0.80;;;22.70;45.50;;;;;;4998993;28;20045;-52
2022/09/09 10:44:04;;;;;;;5.45;1.10;;;22.70;45.40;;;;;;5003079;28;20050;-56
2022/09/09 10:46:41;;;;;;;8.15;1.35;;;22.80;46.10;;;;;;5005708;28;20422;-53
2022/09/09 10:49:20;;;;;;;4.95;0.93;;;22.80;45.50;;;;;;5005610;28;20049;-53
2022/09/09 10:51:54;;;;;;;2.17;0.82;;;22.80;45.00;;;;;;5002759;28;20054;-56
2022/09/09 10:54:42;;;;;;;3.08;0.77;;;22.90;45.20;;;;;;5005101;28;20394;-58
2022/09/09 10:57:16;;;;;;;4.07;0.90;;;22.90;44.90;;;;;;5004349;28;20069;-57
2022/09/09 10:59:51;;;;;;;5.13;1.00;;;22.90;45.00;;;;;;5003953;28;20062;-53
2022/09/09 11:02:27;;;;;;;4.38;0.98;;;22.90;45.20;;;;;;4995097;28;20053;-55
2022/09/09 11:05:00;;;;;;;2.28;0.85;;;22.90;45.10;;;;;;5003560;28;20077;-54
2022/09/09 11:07:35;;;;;;;6.85;1.33;;;23.00;44.80;;;;;;5004619;28;20057;-56
2022/09/09 11:10:08;;;;;;;7.20;1.40;;;23.00;44.50;;;;;;5002140;28;20054;-53
2022/09/09 11:12:38;;;;;;;4.38;0.65;;;23.00;44.20;;;;;;5003344;28;20050;-53
2022/09/09 11:15:15;;;;;;;3.85;0.75;;;23.10;44.40;;;;;;5003264;28;20493;-57
2022/09/09 11:17:49;;;;;;;3.67;0.70;;;23.10;44.30;;;;;;5005734;28;20267;-57
2022/09/09 11:20:16;;;;;;;2.70;0.90;;;23.10;44.40;;;;;;5001808;28;20505;-56
2022/09/09 11:22:49;;;;;;;5.63;1.17;;;23.10;44.70;;;;;;5003588;28;20057;-56
2022/09/09 11:25:19;;;;;;;8.07;1.17;;;23.20;44.40;;;;;;5003762;28;20057;-53
2022/09/09 11:28:06;;;;;;;2.38;0.55;;;23.20;44.50;;;;;;5003296;28;20054;-57
2022/09/09 11:30:44;;;;;;;6.50;0.95;;;23.20;44.60;;;;;;5002386;28;20524;-54
2022/09/09 11:33:35;;;;;;;2.63;0.98;;;23.30;44.20;;;;;;5005420;28;20045;-56
2022/09/09 11:36:22;;;;;;;3.33;1.00;;;23.30;44.00;;;;;;5005908;28;20058;-56
2022/09/09 11:38:52;;;;;;;2.85;0.73;;;23.30;44.00;;;;;;5006701;28;20061;-58
2022/09/09 11:41:21;;;;;;;4.90;1.00;;;23.30;43.90;;;;;;4994921;28;20073;-53
2022/09/09 11:43:51;;;;;;;3.00;0.70;;;23.40;43.60;;;;;;5004975;28;20057;-55
2022/09/09 11:46:23;;;;;;;4.50;0.98;;;23.40;44.10;;;;;;5007166;28;20061;-57
2022/09/09 11:49:00;;;;;;;4.15;0.93;;;23.40;43.50;;;;;;5007054;28;20056;-58
2022/09/09 11:51:30;;;;;;;3.75;0.88;;;23.40;43.50;;;;;;5003685;28;20058;-56
2022/09/09 11:54:01;;;;;;;2.95;0.90;;;23.40;43.40;;;;;;5005684;28;20054;-58
2022/09/09 11:56:31;;;;;;;4.03;0.88;;;23.40;43.40;;;;;;5007606;28;20058;-56
2022/09/09 11:59:02;;;;;;;3.05;0.85;;;23.40;43.30;;;;;;5006762;28;20049;-57
2022/09/09 12:01:36;;;;;;;2.97;0.65;;;23.40;43.30;;;;;;5004154;28;20062;-60
2022/09/09 12:04:15;;;;;;;;;;;23.40;43.40;;;;;;5005877;28;20430;-56
2022/09/09 12:06:46;;;;;;;5.90;0.80;;;23.50;44.00;;;;;;5006048;28;20377;-59
2022/09/09 12:09:24;;;;;;;5.68;1.05;;;23.50;43.80;;;;;;5003811;28;20053;-55
2022/09/09 12:11:51;;;;;;;3.67;0.85;;;23.60;43.80;;;;;;4999609;28;20061;-56
2022/09/09 12:14:23;;;;;;;2.63;0.60;;;23.60;43.80;;;;;;5001782;28;20046;-57
2022/09/09 12:16:52;;;;;;;4.05;0.82;;;23.60;43.70;;;;;;5002200;28;20077;-60
2022/09/09 12:19:22;;;;;;;3.30;0.50;;;23.70;43.70;;;;;;5003667;28;20060;-58
2022/09/09 12:21:59;;;;;;;3.83;1.08;;;23.70;43.80;;;;;;4999869;28;20053;-61
2022/09/09 12:24:34;;;;;;;2.95;0.90;;;23.70;43.80;;;;;;5001719;28;20057;-60
2022/09/09 12:27:10;;;;;;;3.33;0.85;;;23.80;43.70;;;;;;5002105;28;20057;-59
2022/09/09 12:29:44;;;;;;;3.00;0.68;;;23.80;43.70;;;;;;5002978;28;20054;-57
2022/09/09 12:32:16;;;;;;;2.80;0.80;;;23.80;43.70;;;;;;5003681;28;20054;-54
2022/09/09 12:34:48;;;;;;;4.80;0.85;;;23.90;43.30;;;;;;5002553;28;20057;-56
2022/09/09 12:37:26;;;;;;;4.30;0.90;;;23.90;43.30;;;;;;5003895;28;20062;-56
2022/09/09 12:39:56;;;;;;;2.65;0.80;;;24.00;42.90;;;;;;5003585;28;20757;-57
2022/09/09 12:42:24;;;;;;;4.30;0.85;;;24.00;43.00;;;;;;5003277;28;20512;-57
2022/09/09 12:44:57;;;;;;;2.05;0.70;;;24.00;42.70;;;;;;5003169;28;20050;-56
2022/09/09 12:47:31;;;;;;;3.60;0.80;;;24.00;42.50;;;;;;5004471;28;20128;-55
2022/09/09 12:49:59;;;;;;;5.03;1.02;;;24.00;42.40;;;;;;5002390;28;20049;-57
2022/09/09 12:52:30;;;;;;;5.50;0.75;;;24.00;42.50;;;;;;5003414;28;20054;-57
2022/09/09 12:55:01;;;;;;;3.70;0.85;;;24.00;42.60;;;;;;5003299;28;20466;-57
2022/09/09 12:57:33;;;;;;;3.65;0.80;;;24.00;42.30;;;;;;5002768;28;20073;-57
2022/09/09 13:00:13;;;;;;;3.63;0.88;;;24.00;42.10;;;;;;5003119;28;20502;-55
2022/09/09 13:02:51;;;;;;;3.75;0.88;;;24.00;42.20;;;;;;5002630;28;20046;-56
2022/09/09 13:05:21;;;;;;;2.88;0.73;;;24.00;42.10;;;;;;5004734;28;20068;-57
2022/09/09 13:07:48;;;;;;;2.30;0.77;;;24.00;42.20;;;;;;5004727;28;20065;-57
2022/09/09 13:10:23;;;;;;;2.47;0.70;;;24.00;42.40;;;;;;4994554;28;20077;-56
2022/09/09 13:12:51;;;;;;;1.90;0.47;;;24.00;42.20;;;;;;5003804;28;20548;-55
2022/09/09 13:15:24;;;;;;;1.25;0.55;;;24.00;42.20;;;;;;5005265;28;20073;-56
2022/09/09 13:17:55;;;;;;;5.18;1.05;;;23.90;42.10;;;;;;5004046;28;20068;-57